createdAt,value
2022-08-07T00:00:28.076Z,14.20
2022-08-07T00:05:37.598Z,16.58
2022-08-07T00:08:07.887Z,16.98
2022-08-07T00:10:48.065Z,11.47
2022-08-07T00:13:25.714Z,14.80
2022-08-07T00:15:55.830Z,14.63
2022-08-07T00:18:27.645Z,16.42
2022-08-07T00:21:08.135Z,13.38
2022-08-07T00:23:56.135Z,14.73
2022-08-07T00:26:59.065Z,13.20
2022-08-07T00:29:13.094Z,13.48
2022-08-07T00:31:43.916Z,15.98
2022-08-07T00:34:17.363Z,11.65
2022-08-07T00:36:50.161Z,13.13
2022-08-07T00:39:20.644Z,11.50
2022-08-07T00:42:04.799Z,11.80
2022-08-07T00:44:41.282Z,10.75
2022-08-07T00:47:15.680Z,11.30
2022-08-07T00:50:19.445Z,12.70
2022-08-07T00:52:47.522Z,13.73
2022-08-07T00:55:17.498Z,13.10
2022-08-07T00:57:55.735Z,12.45
2022-08-07T01:00:24.907Z,10.70
2022-08-07T01:02:53.815Z,11.95
2022-08-07T01:05:24.596Z,10.93
2022-08-07T01:07:53.939Z,16.30
2022-08-07T01:10:24.092Z,14.25
2022-08-07T01:12:54.693Z,11.35
2022-08-07T01:15:35.634Z,12.77
2022-08-07T01:18:17.666Z,11.73
2022-08-07T01:21:05.529Z,10.75
2022-08-07T01:23:51.520Z,11.45
2022-08-07T01:26:22.519Z,12.88
2022-08-07T01:28:55.802Z,13.20
2022-08-07T01:31:42.851Z,12.68
2022-08-07T01:34:18.585Z,10.02
2022-08-07T01:36:52.825Z,11.10
2022-08-07T01:39:40.969Z,13.77
2022-08-07T01:42:38.986Z,10.95
2022-08-07T01:45:17.961Z,12.95
2022-08-07T01:48:19.637Z,13.55
2022-08-07T01:50:42.943Z,15.52
2022-08-07T01:53:21.616Z,9.55
2022-08-07T01:56:03.138Z,11.75
2022-08-07T01:58:40.891Z,14.13
2022-08-07T02:01:25.654Z,10.63
2022-08-07T02:04:09.865Z,14.35
2022-08-07T02:06:43.110Z,13.05
2022-08-07T02:09:51.885Z,9.93
2022-08-07T02:12:18.516Z,12.02
2022-08-07T02:14:55.167Z,11.57
2022-08-07T02:17:35.621Z,12.63
2022-08-07T02:20:09.558Z,12.82
2022-08-07T02:22:47.073Z,11.82
2022-08-07T02:26:10.770Z,13.07
2022-08-07T02:30:55.530Z,14.30
2022-08-07T02:33:42.279Z,11.52
2022-08-07T02:36:29.408Z,14.23
2022-08-07T02:39:16.782Z,14.32
2022-08-07T02:41:54.875Z,13.50
2022-08-07T02:44:34.427Z,15.77
2022-08-07T02:47:08.636Z,11.88
2022-08-07T02:49:58.171Z,14.10
2022-08-07T02:52:37.369Z,13.23
2022-08-07T02:55:28.569Z,12.73
2022-08-07T02:58:12.039Z,14.60
2022-08-07T03:00:46.752Z,13.80
2022-08-07T03:03:22.575Z,12.18
2022-08-07T03:05:56.808Z,15.68
2022-08-07T03:08:29.291Z,15.48
2022-08-07T03:11:00.852Z,16.52
2022-08-07T03:13:39.240Z,12.43
2022-08-07T03:16:22.988Z,15.27
2022-08-07T03:18:58.673Z,17.60
2022-08-07T03:21:28.103Z,12.68
2022-08-07T03:24:18.219Z,15.15
2022-08-07T03:26:58.395Z,14.15
2022-08-07T03:29:36.874Z,12.57
2022-08-07T03:32:13.484Z,13.95
2022-08-07T03:35:16.786Z,15.32
2022-08-07T03:37:46.455Z,13.70
2022-08-07T03:40:30.910Z,12.77
2022-08-07T03:43:10.105Z,14.10
2022-08-07T03:45:47.921Z,13.82
2022-08-07T03:48:21.572Z,11.10
2022-08-07T03:50:52.196Z,13.80
2022-08-07T03:53:30.321Z,11.85
2022-08-07T03:56:32.738Z,13.70
2022-08-07T03:59:09.151Z,11.00
2022-08-07T04:01:47.050Z,14.45
2022-08-07T04:04:18.561Z,11.32
2022-08-07T04:06:52.652Z,10.35
2022-08-07T04:09:25.122Z,11.32
2022-08-07T04:14:56.298Z,10.80
2022-08-07T04:18:11.181Z,12.18
2022-08-07T04:20:14.991Z,12.85
2022-08-07T04:22:53.482Z,11.93
2022-08-07T04:25:35.916Z,9.63
2022-08-07T04:28:10.426Z,14.52
2022-08-07T04:30:55.418Z,12.90
2022-08-07T04:33:29.678Z,10.02
2022-08-07T04:36:00.165Z,10.48
2022-08-07T04:38:35.596Z,10.68
2022-08-07T04:41:04.730Z,9.38
2022-08-07T04:44:12.565Z,8.63
2022-08-07T04:46:53.950Z,10.57
2022-08-07T04:49:57.452Z,12.45
2022-08-07T04:52:52.419Z,13.27
2022-08-07T04:58:12.099Z,13.02
2022-08-07T04:59:17.479Z,11.73
2022-08-07T05:02:20.500Z,12.77
2022-08-07T05:05:02.720Z,11.75
2022-08-07T05:07:48.466Z,11.48
2022-08-07T05:10:29.227Z,11.88
2022-08-07T05:13:09.837Z,12.73
2022-08-07T05:15:56.574Z,10.82
2022-08-07T05:18:32.701Z,12.02
2022-08-07T05:21:12.760Z,11.57
2022-08-07T05:23:51.887Z,9.70
2022-08-07T05:26:25.205Z,12.13
2022-08-07T05:29:04.318Z,12.25
2022-08-07T05:31:38.662Z,12.30
2022-08-07T05:34:17.084Z,14.85
2022-08-07T05:36:52.674Z,9.77
2022-08-07T05:40:13.850Z,9.25
2022-08-07T05:42:33.846Z,11.55
2022-08-07T05:45:25.734Z,10.65
2022-08-07T05:48:02.516Z,10.38
2022-08-07T05:50:43.638Z,10.50
2022-08-07T05:54:12.731Z,12.93
2022-08-07T05:56:06.817Z,11.20
2022-08-07T05:58:41.771Z,15.70
2022-08-07T06:01:22.133Z,12.02
2022-08-07T06:03:58.912Z,12.15
2022-08-07T06:06:36.918Z,10.23
2022-08-07T06:09:11.322Z,11.32
2022-08-07T06:11:45.535Z,11.98
2022-08-07T06:14:20.999Z,11.45
2022-08-07T06:16:55.732Z,10.88
2022-08-07T06:19:58.314Z,12.00
2022-08-07T06:22:23.464Z,9.32
2022-08-07T06:25:03.906Z,9.88
2022-08-07T06:27:59.868Z,12.65
2022-08-07T06:30:32.465Z,9.68
2022-08-07T06:33:16.633Z,10.45
2022-08-07T06:36:06.667Z,14.70
2022-08-07T06:38:38.629Z,11.93
2022-08-07T06:41:13.065Z,12.40
2022-08-07T06:43:46.010Z,12.15
2022-08-07T06:46:20.383Z,10.85
2022-08-07T06:49:04.351Z,16.17
2022-08-07T06:51:49.557Z,12.05
2022-08-07T06:55:31.762Z,17.13
2022-08-07T06:57:10.181Z,12.82
2022-08-07T07:00:14.774Z,13.25
2022-08-07T07:06:03.200Z,17.70
2022-08-07T07:08:18.663Z,17.20
2022-08-07T07:10:57.384Z,15.70
2022-08-07T07:13:55.765Z,17.60
2022-08-07T07:16:27.544Z,16.98
2022-08-07T07:19:54.581Z,21.00
2022-08-07T07:22:04.742Z,16.88
2022-08-07T07:24:58.337Z,17.90
2022-08-07T07:27:55.660Z,19.23
2022-08-07T07:30:38.615Z,22.48
2022-08-07T07:33:12.125Z,18.13
2022-08-07T07:36:05.001Z,17.73
2022-08-07T07:38:34.924Z,16.48
2022-08-07T07:41:09.183Z,20.55
2022-08-07T07:44:14.696Z,15.80
2022-08-07T07:46:37.490Z,14.57
2022-08-07T07:50:32.769Z,14.68
2022-08-07T07:52:13.061Z,15.27
2022-08-07T07:54:44.296Z,15.38
2022-08-07T07:57:52.361Z,14.95
2022-08-07T08:00:12.284Z,16.83
2022-08-07T08:03:05.241Z,14.30
2022-08-07T08:05:50.532Z,18.42
2022-08-07T08:08:35.585Z,14.57
2022-08-07T08:11:08.525Z,14.77
2022-08-07T08:13:55.510Z,15.05
2022-08-07T08:16:50.237Z,13.45
2022-08-07T08:20:16.367Z,15.45
2022-08-07T08:22:35.796Z,16.13
2022-08-07T08:25:42.379Z,16.15
2022-08-07T08:28:37.427Z,13.52
2022-08-07T08:31:15.929Z,14.90
2022-08-07T08:33:49.296Z,16.23
2022-08-07T08:36:30.618Z,15.18
2022-08-07T08:39:02.098Z,14.73
2022-08-07T08:41:57.449Z,16.55
2022-08-07T08:44:56.177Z,16.98
2022-08-07T08:47:51.986Z,13.88
2022-08-07T08:50:42.167Z,17.13
2022-08-07T08:53:38.195Z,16.67
2022-08-07T08:56:24.492Z,17.75
2022-08-07T08:58:57.090Z,16.52
2022-08-07T09:01:49.116Z,16.85
2022-08-07T09:04:36.715Z,16.60
2022-08-07T09:07:24.405Z,19.33
2022-08-07T09:10:07.983Z,17.60
2022-08-07T09:13:14.782Z,19.40
2022-08-07T09:16:20.377Z,16.02
2022-08-07T09:18:59.020Z,17.20
2022-08-07T09:22:22.455Z,17.00
2022-08-07T09:24:59.584Z,18.27
2022-08-07T09:27:54.613Z,15.80
2022-08-07T09:30:36.541Z,19.08
2022-08-07T09:33:53.244Z,19.05
2022-08-07T09:36:31.195Z,14.98
2022-08-07T09:39:27.481Z,17.27
2022-08-07T09:42:23.183Z,16.02
2022-08-07T09:47:24.754Z,15.60
2022-08-07T09:48:01.362Z,16.75
2022-08-07T09:52:09.340Z,16.20
2022-08-07T09:54:02.644Z,16.42
2022-08-07T09:57:00.822Z,15.35
2022-08-07T10:00:01.032Z,17.15
2022-08-07T10:03:08.323Z,17.33
2022-08-07T10:06:10.505Z,20.60
2022-08-07T10:08:44.282Z,17.88
2022-08-07T10:12:01.963Z,15.57
2022-08-07T10:14:55.094Z,14.18
2022-08-07T10:18:01.434Z,14.65
2022-08-07T10:20:50.349Z,12.70
2022-08-07T10:24:06.964Z,13.30
2022-08-07T10:26:52.928Z,11.77
2022-08-07T10:29:53.082Z,12.65
2022-08-07T10:32:52.358Z,13.15
2022-08-07T10:35:55.205Z,16.75
2022-08-07T10:38:48.150Z,15.43
2022-08-07T10:41:46.509Z,14.00
2022-08-07T10:44:38.337Z,19.23
2022-08-07T10:47:48.794Z,14.18
2022-08-07T10:50:25.829Z,12.68
2022-08-07T10:53:08.168Z,13.98
2022-08-07T10:55:50.342Z,14.02
2022-08-07T10:58:40.314Z,17.50
2022-08-07T11:01:35.372Z,13.75
2022-08-07T11:04:38.366Z,14.45
2022-08-07T11:07:58.388Z,12.05
2022-08-07T11:10:59.779Z,10.77
2022-08-07T11:14:42.036Z,14.68
2022-08-07T11:16:54.754Z,12.35
2022-08-07T11:22:11.449Z,13.80
2022-08-07T11:24:57.050Z,17.90
2022-08-07T11:28:00.744Z,16.90
2022-08-07T11:30:42.004Z,16.70
2022-08-07T11:33:59.580Z,14.43
2022-08-07T11:36:31.192Z,15.25
2022-08-07T11:39:21.834Z,16.10
2022-08-07T11:42:18.598Z,16.05
2022-08-07T11:45:35.827Z,17.85
2022-08-07T11:48:29.221Z,16.08
2022-08-07T11:51:41.565Z,14.85
2022-08-07T11:54:34.581Z,17.70
2022-08-07T11:57:18.964Z,10.45
2022-08-07T12:00:10.138Z,15.50
2022-08-07T12:03:41.482Z,11.40
2022-08-07T12:06:40.020Z,12.57
2022-08-07T12:09:33.546Z,12.27
2022-08-07T12:12:19.530Z,14.55
2022-08-07T12:14:56.192Z,12.32
2022-08-07T12:17:59.856Z,12.38
2022-08-07T12:20:34.806Z,12.68
2022-08-07T12:24:06.176Z,13.00
2022-08-07T12:26:40.503Z,11.32
2022-08-07T12:29:38.235Z,16.55
2022-08-07T12:32:31.576Z,14.20
2022-08-07T12:35:05.644Z,13.55
2022-08-07T12:38:11.691Z,11.32
2022-08-07T12:40:50.574Z,14.95
2022-08-07T12:46:15.888Z,13.13
2022-08-07T12:49:10.165Z,11.45
2022-08-07T12:52:13.940Z,14.15
2022-08-07T12:55:17.449Z,10.40
2022-08-07T12:58:00.158Z,12.57
2022-08-07T13:00:56.706Z,15.57
2022-08-07T13:03:56.111Z,15.43
2022-08-07T13:07:08.072Z,12.07
2022-08-07T13:10:28.293Z,11.43
2022-08-07T13:13:11.164Z,11.20
2022-08-07T13:16:25.098Z,11.20
2022-08-07T13:19:18.246Z,12.32
2022-08-07T13:22:33.714Z,11.80
2022-08-07T13:25:29.734Z,11.50
2022-08-07T13:28:12.575Z,11.20
2022-08-07T13:31:01.545Z,12.60
2022-08-07T13:34:32.787Z,24.90
2022-08-07T13:36:46.906Z,13.85
2022-08-07T13:40:34.313Z,12.07
2022-08-07T13:42:39.217Z,8.95
2022-08-07T13:45:20.672Z,9.65
2022-08-07T13:48:05.983Z,11.68
2022-08-07T13:50:45.005Z,12.57
2022-08-07T13:54:00.181Z,11.50
2022-08-07T13:56:36.105Z,10.48
2022-08-07T13:59:14.350Z,9.82
2022-08-07T14:02:03.551Z,10.88
2022-08-07T14:04:48.906Z,10.35
2022-08-07T14:07:24.535Z,11.55
2022-08-07T14:10:17.549Z,10.45
2022-08-07T14:13:01.360Z,13.85
2022-08-07T14:15:42.708Z,11.85
2022-08-07T14:18:30.750Z,10.80
2022-08-07T14:21:11.741Z,11.55
2022-08-07T14:24:02.327Z,9.27
2022-08-07T14:26:58.601Z,8.25
2022-08-07T14:30:07.932Z,8.50
2022-08-07T14:32:26.889Z,7.85
2022-08-07T14:34:56.075Z,7.72
2022-08-07T14:37:38.797Z,7.68
2022-08-07T14:40:26.284Z,8.95
2022-08-07T14:43:55.257Z,10.38
2022-08-07T14:46:00.832Z,9.38
2022-08-07T14:48:34.412Z,9.68
2022-08-07T14:54:09.814Z,11.02
2022-08-07T14:56:54.970Z,10.60
2022-08-07T15:00:05.062Z,10.73
2022-08-07T15:02:33.951Z,7.80
2022-08-07T15:05:04.156Z,11.73
2022-08-07T15:07:47.462Z,8.85
2022-08-07T15:10:26.721Z,8.02
2022-08-07T15:13:22.483Z,7.80
2022-08-07T15:16:00.078Z,8.88
2022-08-07T15:18:51.713Z,10.93
2022-08-07T15:21:54.067Z,6.93
2022-08-07T15:25:15.649Z,10.88
2022-08-07T15:27:24.203Z,7.53
2022-08-07T15:30:06.692Z,11.02
2022-08-07T15:33:01.392Z,6.72
2022-08-07T15:36:01.454Z,7.60
2022-08-07T15:38:33.102Z,8.18
2022-08-07T15:42:44.620Z,9.43
2022-08-07T15:44:17.204Z,8.40
2022-08-07T15:50:05.154Z,9.60
2022-08-07T15:52:30.288Z,6.90
2022-08-07T15:55:08.795Z,8.57
2022-08-07T15:57:48.787Z,8.18
2022-08-07T16:00:31.503Z,7.95
2022-08-07T16:03:05.338Z,7.95
2022-08-07T16:05:34.903Z,6.82
2022-08-07T16:08:32.159Z,11.95
2022-08-07T16:11:17.468Z,9.00
2022-08-07T16:14:19.378Z,8.10
2022-08-07T16:16:51.205Z,7.57
2022-08-07T16:20:00.036Z,5.03
2022-08-07T16:22:55.548Z,7.55
2022-08-07T16:25:24.973Z,4.93
2022-08-07T16:29:18.359Z,5.95
2022-08-07T16:31:51.183Z,7.18
2022-08-07T16:34:32.947Z,6.53
2022-08-07T16:38:06.500Z,6.70
2022-08-07T16:40:33.511Z,5.18
2022-08-07T16:44:02.356Z,8.10
2022-08-07T16:47:05.872Z,8.70
2022-08-07T16:50:20.855Z,5.82
2022-08-07T16:53:55.638Z,6.68
2022-08-07T16:56:40.629Z,4.65
2022-08-07T16:59:46.629Z,6.95
2022-08-07T17:02:52.222Z,5.47
2022-08-07T17:06:01.927Z,7.72
2022-08-07T17:08:10.198Z,6.28
2022-08-07T17:10:54.527Z,4.40
2022-08-07T17:14:19.670Z,5.10
2022-08-07T17:16:58.602Z,6.00
2022-08-07T17:20:01.853Z,6.70
2022-08-07T17:22:37.676Z,4.55
2022-08-07T17:25:47.419Z,5.30
2022-08-07T17:28:19.995Z,4.93
2022-08-07T17:34:08.646Z,5.85
2022-08-07T17:36:29.979Z,6.72
2022-08-07T17:39:10.343Z,7.75
2022-08-07T17:42:02.452Z,6.40
2022-08-07T17:44:50.095Z,7.85
2022-08-07T17:47:43.603Z,6.95
2022-08-07T17:50:20.751Z,5.07
2022-08-07T17:53:59.835Z,8.00
2022-08-07T17:56:29.881Z,6.13
2022-08-07T17:59:10.415Z,6.25
2022-08-07T18:02:20.762Z,6.63
2022-08-07T18:05:21.317Z,7.97
2022-08-07T18:08:15.429Z,7.28
2022-08-07T18:12:08.116Z,6.97
2022-08-07T18:14:17.961Z,8.55
2022-08-07T18:17:01.529Z,11.65
2022-08-07T18:21:08.886Z,9.95
2022-08-07T18:23:42.746Z,6.50
2022-08-07T18:26:05.415Z,7.90
2022-08-07T18:29:04.415Z,8.23
2022-08-07T18:31:54.282Z,5.82
2022-08-07T18:35:02.445Z,8.43
2022-08-07T18:38:55.881Z,8.73
2022-08-07T18:41:08.303Z,7.05
2022-08-07T18:43:42.848Z,7.85
2022-08-07T18:46:28.689Z,8.23
2022-08-07T18:50:30.759Z,10.80
2022-08-07T18:52:38.191Z,8.63
2022-08-07T18:55:55.406Z,9.68
2022-08-07T18:58:38.623Z,8.77
2022-08-07T19:02:18.186Z,11.10
2022-08-07T19:04:56.130Z,8.13
2022-08-07T19:07:37.801Z,10.80
2022-08-07T19:10:31.271Z,10.60
2022-08-07T19:13:23.285Z,8.35
2022-08-07T19:17:00.385Z,12.85
2022-08-07T19:19:35.714Z,11.98
2022-08-07T19:23:18.279Z,9.30
2022-08-07T19:26:24.868Z,10.27
2022-08-07T19:30:53.724Z,10.65
2022-08-07T19:32:29.001Z,11.70
2022-08-07T19:34:59.421Z,11.40
2022-08-07T19:37:55.458Z,10.88
2022-08-07T19:40:31.349Z,8.90
2022-08-07T19:43:10.641Z,9.68
2022-08-07T19:46:05.942Z,8.82
2022-08-07T19:48:54.216Z,8.88
2022-08-07T19:51:51.701Z,7.72
2022-08-07T19:54:33.256Z,8.90
2022-08-07T19:58:00.892Z,6.88
2022-08-07T20:00:08.792Z,8.63
2022-08-07T20:03:31.389Z,10.15
2022-08-07T20:06:02.152Z,9.88
2022-08-07T20:08:36.687Z,10.18
2022-08-07T20:11:10.859Z,9.77
2022-08-07T20:13:50.035Z,17.20
2022-08-07T20:16:35.434Z,16.77
2022-08-07T20:19:11.828Z,20.80
2022-08-07T20:21:47.591Z,17.05
2022-08-07T20:24:28.909Z,16.80
2022-08-07T20:27:07.485Z,16.15
2022-08-07T20:29:56.842Z,9.52
2022-08-07T20:32:47.787Z,14.55
2022-08-07T20:35:25.285Z,13.23
2022-08-07T20:37:58.650Z,10.48
2022-08-07T20:40:37.443Z,10.70
2022-08-07T20:43:14.715Z,10.43
2022-08-07T20:46:27.105Z,9.95
2022-08-07T20:49:55.069Z,10.27
2022-08-07T20:51:35.991Z,10.45
2022-08-07T20:54:12.040Z,10.52
2022-08-07T20:56:49.919Z,9.40
2022-08-07T21:00:05.365Z,11.98
2022-08-07T21:02:38.363Z,8.82
2022-08-07T21:05:16.540Z,9.60
2022-08-07T21:07:48.943Z,9.77
2022-08-07T21:10:25.317Z,11.10
2022-08-07T21:13:02.475Z,11.57
2022-08-07T21:21:04.165Z,10.23
2022-08-07T21:24:01.991Z,11.30
2022-08-07T21:26:53.730Z,11.13
2022-08-07T21:29:52.987Z,12.57
2022-08-07T21:32:43.571Z,9.10
2022-08-07T21:36:03.815Z,10.10
2022-08-07T21:38:30.919Z,8.23
2022-08-07T21:41:10.888Z,10.75
2022-08-07T21:43:57.521Z,11.05
2022-08-07T21:46:46.355Z,13.02
2022-08-07T21:50:02.207Z,12.27
2022-08-07T21:52:58.017Z,14.55
2022-08-07T21:56:06.040Z,11.75
2022-08-07T21:59:04.631Z,11.15
2022-08-07T22:02:06.934Z,10.50
2022-08-07T22:04:51.236Z,9.20
2022-08-07T22:07:31.859Z,10.00
2022-08-07T22:10:20.171Z,11.63
2022-08-07T22:12:56.179Z,9.00
2022-08-07T22:16:43.510Z,12.20
2022-08-07T22:19:03.477Z,9.32
2022-08-07T22:22:02.772Z,11.30
2022-08-07T22:24:50.571Z,9.57
2022-08-07T22:27:34.192Z,10.32
2022-08-07T22:30:21.267Z,11.55
2022-08-07T22:32:52.027Z,11.20
2022-08-07T22:35:23.293Z,9.10
2022-08-07T22:40:42.398Z,12.27
2022-08-07T22:43:17.580Z,11.88
2022-08-07T22:46:04.810Z,12.82
2022-08-07T22:48:55.595Z,12.27
2022-08-07T22:51:36.660Z,11.75
2022-08-07T22:54:20.175Z,16.02
2022-08-07T22:57:17.057Z,13.00
2022-08-07T23:00:03.028Z,14.07
2022-08-07T23:02:49.286Z,12.40
2022-08-07T23:06:08.794Z,12.32
2022-08-07T23:08:24.217Z,10.60
2022-08-07T23:11:13.309Z,16.25
2022-08-07T23:14:15.463Z,11.73
2022-08-07T23:17:32.999Z,11.85
2022-08-07T23:20:51.101Z,13.82
2022-08-07T23:24:06.821Z,15.38
2022-08-07T23:26:19.234Z,13.80
2022-08-07T23:29:01.857Z,10.60
2022-08-07T23:34:21.733Z,12.63
2022-08-07T23:35:24.199Z,13.80
2022-08-07T23:38:19.460Z,11.73
2022-08-07T23:42:01.581Z,12.53
2022-08-07T23:44:51.660Z,10.57
2022-08-07T23:47:50.414Z,11.93
2022-08-07T23:50:42.268Z,11.38
2022-08-07T23:53:18.949Z,12.57
2022-08-07T23:56:02.156Z,11.15
2022-08-07T23:58:34.827Z,12.32
